createdAt,value
2019-04-20T00:04:45.379Z,12.50
2019-04-20T00:07:18.655Z,12.40
2019-04-20T00:10:00.677Z,12.30
2019-04-20T00:12:36.758Z,12.20
2019-04-20T00:15:00.622Z,12.10
2019-04-20T00:17:33.150Z,12.00
2019-04-20T00:20:13.433Z,12.00
2019-04-20T00:22:59.847Z,11.90
2019-04-20T00:26:04.447Z,11.70
2019-04-20T00:28:46.037Z,11.60
2019-04-20T00:31:22.212Z,11.50
2019-04-20T00:33:49.632Z,11.50
2019-04-20T00:36:10.138Z,11.60
2019-04-20T00:38:50.049Z,11.60
2019-04-20T00:41:20.342Z,11.70
2019-04-20T00:43:53.273Z,11.80
2019-04-20T00:46:41.170Z,11.70
2019-04-20T00:49:17.255Z,11.70
2019-04-20T00:51:52.661Z,11.80
2019-04-20T00:54:11.402Z,11.90
2019-04-20T00:56:45.346Z,11.80
2019-04-20T00:59:33.218Z,11.70
2019-04-20T01:02:10.628Z,11.50
2019-04-20T01:04:47.681Z,11.30
2019-04-20T01:07:24.147Z,11.20
2019-04-20T01:10:04.674Z,11.10
2019-04-20T01:12:40.475Z,11.00
2019-04-20T01:15:20.920Z,10.90
2019-04-20T01:17:44.878Z,10.80
2019-04-20T01:20:17.372Z,10.70
2019-04-20T01:22:56.081Z,10.60
2019-04-20T01:25:29.105Z,10.60
2019-04-20T01:28:13.477Z,10.50
2019-04-20T01:30:37.795Z,10.40
2019-04-20T01:33:22.882Z,10.40
2019-04-20T01:35:56.954Z,10.30
2019-04-20T01:38:30.502Z,10.20
2019-04-20T01:40:51.075Z,10.10
2019-04-20T01:43:23.024Z,10.00
2019-04-20T01:46:02.879Z,9.90
2019-04-20T01:48:33.647Z,9.80
2019-04-20T01:51:10.017Z,9.70
2019-04-20T01:54:03.889Z,9.60
2019-04-20T01:56:31.382Z,9.60
2019-04-20T01:59:29.539Z,9.50
2019-04-20T02:02:17.938Z,9.50
2019-04-20T02:04:55.081Z,9.40
2019-04-20T02:07:34.864Z,9.30
2019-04-20T02:10:05.047Z,9.20
2019-04-20T02:12:36.246Z,9.10
2019-04-20T02:15:19.112Z,9.10
2019-04-20T02:17:53.630Z,9.00
2019-04-20T02:20:33.126Z,8.90
2019-04-20T02:23:05.353Z,8.90
2019-04-20T02:25:22.798Z,8.80
2019-04-20T02:28:13.598Z,8.80
2019-04-20T02:31:06.495Z,8.80
2019-04-20T02:33:47.437Z,8.70
2019-04-20T02:36:25.344Z,8.70
2019-04-20T02:42:00.035Z,8.70
2019-04-20T02:44:27.575Z,8.60
2019-04-20T02:49:36.261Z,8.50
2019-04-20T03:00:10.408Z,8.50
2019-04-20T03:02:19.474Z,8.50
2019-04-20T03:04:42.465Z,8.40
2019-04-20T03:07:26.760Z,8.40
2019-04-20T03:10:01.085Z,8.30
2019-04-20T03:12:40.075Z,8.30
2019-04-20T03:15:01.640Z,8.30
2019-04-20T03:17:49.309Z,8.20
2019-04-20T03:20:20.236Z,8.20
2019-04-20T03:23:15.928Z,8.10
2019-04-20T03:25:49.543Z,8.00
2019-04-20T03:28:18.244Z,8.00
2019-04-20T03:33:51.392Z,7.90
2019-04-20T03:36:19.859Z,7.90
2019-04-20T03:38:37.185Z,7.80
2019-04-20T03:41:04.851Z,7.70
2019-04-20T03:43:26.613Z,7.70
2019-04-20T03:46:05.856Z,7.70
2019-04-20T03:48:48.320Z,7.70
2019-04-20T03:51:30.581Z,7.80
2019-04-20T03:54:08.588Z,7.80
2019-04-20T03:57:21.422Z,7.80
2019-04-20T03:59:56.185Z,7.70
2019-04-20T04:02:52.857Z,7.70
2019-04-20T04:05:17.691Z,7.50
2019-04-20T04:07:43.733Z,7.50
2019-04-20T04:10:25.914Z,7.40
2019-04-20T04:13:09.631Z,7.30
2019-04-20T04:15:50.128Z,7.30
2019-04-20T04:18:31.162Z,7.20
2019-04-20T04:21:03.866Z,7.20
2019-04-20T04:23:48.981Z,7.20
2019-04-20T04:26:24.575Z,7.10
2019-04-20T04:28:53.237Z,7.20
2019-04-20T04:31:34.989Z,7.20
2019-04-20T04:34:02.641Z,7.20
2019-04-20T04:36:40.582Z,7.10
2019-04-20T04:39:22.814Z,7.10
2019-04-20T04:42:01.755Z,7.10
2019-04-20T04:44:27.745Z,7.00
2019-04-20T04:46:52.413Z,7.00
2019-04-20T04:49:26.676Z,7.00
2019-04-20T04:52:02.225Z,7.00
2019-04-20T04:54:50.344Z,6.90
2019-04-20T04:57:15.726Z,7.00
2019-04-20T04:59:49.092Z,7.00
2019-04-20T05:02:29.971Z,7.00
2019-04-20T05:05:32.426Z,7.00
2019-04-20T05:08:01.582Z,7.10
2019-04-20T05:10:22.384Z,7.20
2019-04-20T05:13:00.789Z,7.20
2019-04-20T05:15:49.054Z,7.20
2019-04-20T05:18:34.730Z,7.30
2019-04-20T05:21:04.440Z,7.30
2019-04-20T05:23:37.815Z,7.50
2019-04-20T05:26:30.795Z,7.70
2019-04-20T05:28:58.988Z,7.90
2019-04-20T05:31:39.718Z,8.10
2019-04-20T05:34:25.682Z,8.30
2019-04-20T05:36:55.656Z,8.40
2019-04-20T05:39:50.909Z,8.70
2019-04-20T05:42:24.685Z,8.90
2019-04-20T05:45:01.947Z,9.10
2019-04-20T05:47:29.113Z,9.30
2019-04-20T05:49:57.509Z,9.50
2019-04-20T05:52:45.675Z,9.70
2019-04-20T05:55:13.121Z,10.00
2019-04-20T05:57:50.441Z,10.20
2019-04-20T06:00:20.955Z,10.40
2019-04-20T06:02:54.906Z,10.60
2019-04-20T06:05:28.852Z,10.80
2019-04-20T06:07:59.088Z,11.00
2019-04-20T06:10:43.050Z,11.20
2019-04-20T06:13:07.494Z,11.40
2019-04-20T06:16:00.571Z,11.60
2019-04-20T06:18:35.500Z,11.80
2019-04-20T06:21:27.743Z,12.00
2019-04-20T06:24:20.416Z,12.20
2019-04-20T06:26:53.996Z,12.30
2019-04-20T06:29:18.321Z,12.40
2019-04-20T06:31:57.409Z,12.50
2019-04-20T06:34:42.552Z,12.70
2019-04-20T06:37:04.186Z,12.90
2019-04-20T06:39:42.634Z,13.00
2019-04-20T06:42:23.461Z,13.10
2019-04-20T06:44:50.777Z,13.20
2019-04-20T06:47:39.730Z,13.30
2019-04-20T06:49:54.738Z,13.30
2019-04-20T06:52:33.953Z,13.50
2019-04-20T06:55:09.808Z,13.60
2019-04-20T06:57:49.888Z,13.70
2019-04-20T07:00:26.075Z,13.90
2019-04-20T07:02:54.435Z,13.90
2019-04-20T07:05:31.994Z,14.10
2019-04-20T07:08:17.194Z,14.20
2019-04-20T07:10:46.516Z,14.40
2019-04-20T07:13:12.825Z,14.50
2019-04-20T07:15:52.028Z,14.50
2019-04-20T07:18:35.745Z,14.60
2019-04-20T07:21:16.323Z,14.80
2019-04-20T07:23:53.412Z,15.00
2019-04-20T07:26:38.433Z,15.20
2019-04-20T07:29:00.442Z,15.40
2019-04-20T07:31:33.478Z,15.50
2019-04-20T07:34:05.200Z,15.70
2019-04-20T07:36:39.865Z,15.90
2019-04-20T07:39:19.072Z,16.10
2019-04-20T07:41:55.657Z,16.30
2019-04-20T07:44:28.002Z,16.40
2019-04-20T07:47:04.348Z,16.60
2019-04-20T07:49:28.981Z,16.70
2019-04-20T07:51:49.441Z,16.90
2019-04-20T07:54:47.608Z,17.00
2019-04-20T07:57:19.591Z,17.10
2019-04-20T08:00:17.561Z,17.30
2019-04-20T08:03:29.359Z,17.40
2019-04-20T08:05:55.165Z,17.60
2019-04-20T08:08:44.004Z,17.80
2019-04-20T08:11:14.104Z,17.90
2019-04-20T08:13:59.032Z,18.10
2019-04-20T08:16:40.845Z,18.30
2019-04-20T08:18:59.698Z,18.40
2019-04-20T08:21:35.168Z,18.50
2019-04-20T08:24:09.663Z,18.60
2019-04-20T08:26:28.956Z,18.80
2019-04-20T08:29:14.711Z,19.00
2019-04-20T08:32:08.768Z,19.10
2019-04-20T08:34:43.072Z,19.20
2019-04-20T08:37:11.738Z,19.40
2019-04-20T08:39:58.806Z,19.50
2019-04-20T08:42:23.849Z,19.50
2019-04-20T08:47:39.642Z,19.80
2019-04-20T08:53:09.610Z,20.00
2019-04-20T08:55:29.787Z,20.20
2019-04-20T08:57:44.907Z,20.30
2019-04-20T09:00:25.836Z,20.20
2019-04-20T09:02:55.649Z,20.30
2019-04-20T09:05:34.795Z,20.20
2019-04-20T09:08:16.215Z,20.30
2019-04-20T09:11:10.225Z,20.30
2019-04-20T09:13:33.369Z,20.20
2019-04-20T09:15:57.894Z,20.10
2019-04-20T09:18:44.282Z,19.90
2019-04-20T09:21:19.977Z,19.90
2019-04-20T09:24:11.953Z,20.00
2019-04-20T09:26:37.704Z,20.20
2019-04-20T09:29:05.417Z,20.40
2019-04-20T09:31:50.272Z,20.50
2019-04-20T09:34:41.717Z,20.60
2019-04-20T09:37:25.478Z,20.60
2019-04-20T09:40:21.268Z,20.80
2019-04-20T09:42:42.327Z,20.90
2019-04-20T09:45:23.175Z,21.00
2019-04-20T09:47:53.208Z,21.10
2019-04-20T09:50:43.583Z,21.20
2019-04-20T09:53:14.222Z,21.30
2019-04-20T09:55:50.634Z,21.40
2019-04-20T09:58:18.091Z,21.50
2019-04-20T10:00:58.179Z,21.50
2019-04-20T10:03:18.482Z,21.50
2019-04-20T10:05:51.624Z,21.60
2019-04-20T10:08:25.912Z,21.60
2019-04-20T10:11:01.414Z,21.70
2019-04-20T10:13:34.317Z,21.70
2019-04-20T10:16:08.019Z,21.70
2019-04-20T10:18:45.490Z,21.90
2019-04-20T10:21:14.004Z,22.00
2019-04-20T10:23:45.819Z,21.90
2019-04-20T10:26:18.820Z,21.70
2019-04-20T10:28:51.864Z,21.70
2019-04-20T10:31:24.531Z,21.80
2019-04-20T10:33:59.789Z,21.70
2019-04-20T10:36:53.338Z,21.50
2019-04-20T10:39:27.144Z,21.40
2019-04-20T10:42:03.767Z,21.60
2019-04-20T10:44:34.678Z,21.80
2019-04-20T10:47:09.077Z,22.00
2019-04-20T10:49:42.856Z,22.10
2019-04-20T10:52:27.835Z,22.30
2019-04-20T10:55:00.655Z,22.30
2019-04-20T10:57:35.389Z,22.40
2019-04-20T11:00:09.997Z,22.40
2019-04-20T11:02:45.748Z,22.40
2019-04-20T11:05:16.903Z,22.40
2019-04-20T11:07:50.481Z,22.50
2019-04-20T11:10:28.537Z,22.70
2019-04-20T11:12:59.163Z,22.80
2019-04-20T11:15:34.634Z,23.00
2019-04-20T11:18:09.150Z,23.00
2019-04-20T11:20:43.640Z,23.00
2019-04-20T11:23:16.576Z,23.00
2019-04-20T11:25:50.523Z,23.10
2019-04-20T11:28:24.076Z,23.20
2019-04-20T11:30:56.303Z,23.30
2019-04-20T11:33:29.993Z,23.40
2019-04-20T11:36:03.225Z,23.40
2019-04-20T11:38:35.948Z,23.40
2019-04-20T11:41:16.528Z,23.50
2019-04-20T11:43:41.941Z,23.50
2019-04-20T11:46:14.555Z,23.40
2019-04-20T11:48:47.609Z,23.50
2019-04-20T11:51:19.487Z,23.70
2019-04-20T11:53:52.222Z,23.80
2019-04-20T11:56:29.436Z,23.60
2019-04-20T11:58:58.886Z,23.20
2019-04-20T12:01:55.065Z,23.00
2019-04-20T12:04:39.439Z,23.10
2019-04-20T12:07:01.891Z,23.10
2019-04-20T12:09:33.807Z,23.30
2019-04-20T12:12:17.796Z,23.20
2019-04-20T12:14:40.975Z,23.00
2019-04-20T12:17:13.581Z,22.90
2019-04-20T12:19:45.987Z,23.10
2019-04-20T12:22:18.387Z,23.30
2019-04-20T12:24:51.929Z,23.50
2019-04-20T12:27:24.957Z,23.60
2019-04-20T12:29:57.606Z,23.80
2019-04-20T12:32:38.602Z,23.80
2019-04-20T12:35:02.830Z,23.40
2019-04-20T12:37:36.821Z,23.30
2019-04-20T12:40:09.509Z,23.40
2019-04-20T12:42:43.173Z,23.60
2019-04-20T12:45:17.736Z,23.90
2019-04-20T12:47:51.419Z,24.10
2019-04-20T12:50:23.969Z,24.20
2019-04-20T12:52:56.729Z,24.20
2019-04-20T12:55:28.889Z,24.30
2019-04-20T12:58:02.828Z,24.40
2019-04-20T13:00:49.312Z,24.60
2019-04-20T13:03:21.416Z,24.70
2019-04-20T13:05:54.301Z,24.90
2019-04-20T13:08:36.309Z,24.80
2019-04-20T13:11:08.715Z,24.80
2019-04-20T13:13:52.615Z,24.80
2019-04-20T13:16:30.392Z,24.80
2019-04-20T13:19:05.547Z,24.70
2019-04-20T13:21:39.078Z,24.70
2019-04-20T13:24:11.484Z,24.70
2019-04-20T13:26:44.886Z,24.70
2019-04-20T13:29:17.115Z,24.70
2019-04-20T13:31:51.969Z,24.60
2019-04-20T13:34:24.107Z,24.50
2019-04-20T13:36:58.163Z,24.40
2019-04-20T13:39:30.956Z,24.50
2019-04-20T13:42:11.489Z,24.70
2019-04-20T13:44:36.925Z,24.90
2019-04-20T13:47:10.703Z,25.00
2019-04-20T13:49:43.052Z,25.10
2019-04-20T13:52:15.833Z,25.30
2019-04-20T13:54:49.728Z,25.20
2019-04-20T13:57:28.157Z,25.10
2019-04-20T14:00:02.202Z,25.10
2019-04-20T14:02:40.898Z,25.10
2019-04-20T14:05:13.325Z,25.00
2019-04-20T14:07:47.192Z,25.00
2019-04-20T14:10:23.687Z,24.90
2019-04-20T14:13:03.154Z,25.00
2019-04-20T14:15:31.295Z,25.00
2019-04-20T14:18:04.918Z,24.80
2019-04-20T14:20:40.622Z,24.80
2019-04-20T14:23:14.843Z,24.80
2019-04-20T14:25:47.208Z,24.90
2019-04-20T14:28:21.068Z,24.90
2019-04-20T14:30:54.076Z,25.00
2019-04-20T14:33:26.591Z,25.00
2019-04-20T14:35:59.047Z,24.70
2019-04-20T14:38:31.052Z,24.40
2019-04-20T14:41:04.286Z,24.20
2019-04-20T14:43:38.118Z,24.20
2019-04-20T14:46:10.645Z,24.20
2019-04-20T14:48:44.872Z,24.30
2019-04-20T14:51:17.362Z,24.50
2019-04-20T14:53:49.515Z,24.50
2019-04-20T14:56:23.396Z,24.40
2019-04-20T14:59:05.364Z,24.40
2019-04-20T15:01:42.920Z,24.40
2019-04-20T15:04:21.335Z,24.60
2019-04-20T15:06:54.843Z,24.70
2019-04-20T15:09:28.837Z,24.70
2019-04-20T15:12:01.035Z,24.80
2019-04-20T15:14:34.696Z,24.70
2019-04-20T15:17:06.883Z,24.70
2019-04-20T15:19:47.657Z,24.70
2019-04-20T15:22:53.795Z,24.60
2019-04-20T15:25:27.441Z,24.50
2019-04-20T15:28:00.457Z,24.40
2019-04-20T15:30:32.357Z,24.40
2019-04-20T15:33:05.188Z,24.40
2019-04-20T15:35:37.882Z,24.40
2019-04-20T15:38:11.128Z,24.40
2019-04-20T15:40:44.856Z,24.40
2019-04-20T15:43:20.830Z,24.40
2019-04-20T15:45:51.528Z,24.20
2019-04-20T15:48:24.200Z,24.10
2019-04-20T15:50:56.548Z,24.00
2019-04-20T15:53:29.448Z,23.90
2019-04-20T15:56:04.988Z,23.90
2019-04-20T15:58:36.570Z,23.80
2019-04-20T16:01:10.266Z,23.80
2019-04-20T16:03:47.609Z,23.80
2019-04-20T16:06:21.299Z,23.80
2019-04-20T16:08:56.472Z,23.80
2019-04-20T16:11:28.758Z,23.70
2019-04-20T16:14:02.015Z,23.60
2019-04-20T16:16:34.754Z,23.60
2019-04-20T16:19:14.692Z,23.60
2019-04-20T16:21:41.647Z,23.60
2019-04-20T16:24:18.958Z,23.60
2019-04-20T16:27:09.921Z,23.60
2019-04-20T16:32:44.861Z,23.20
2019-04-20T16:35:16.768Z,23.10
2019-04-20T16:37:48.619Z,23.10
2019-04-20T16:40:25.398Z,23.00
2019-04-20T16:42:58.516Z,23.00
2019-04-20T16:45:30.686Z,22.90
2019-04-20T16:48:06.793Z,22.90
2019-04-20T16:50:51.007Z,22.80
2019-04-20T16:53:24.733Z,22.70
2019-04-20T16:55:56.840Z,22.70
2019-04-20T16:58:28.751Z,22.70
2019-04-20T17:01:01.260Z,22.60
2019-04-20T17:03:44.450Z,22.60
2019-04-20T17:06:18.108Z,22.60
2019-04-20T17:08:51.165Z,22.60
2019-04-20T17:11:29.874Z,22.60
2019-04-20T17:14:06.741Z,22.50
2019-04-20T17:16:49.663Z,22.50
2019-04-20T17:19:21.893Z,22.50
2019-04-20T17:21:57.291Z,22.60
2019-04-20T17:24:33.533Z,22.70
2019-04-20T17:27:31.230Z,23.20
2019-04-20T17:30:27.423Z,23.80
2019-04-20T17:33:06.223Z,24.50
2019-04-20T17:35:52.606Z,25.00
2019-04-20T17:41:38.522Z,25.30
2019-04-20T17:44:05.471Z,24.70
2019-04-20T17:46:37.069Z,24.20
2019-04-20T17:49:09.483Z,23.70
2019-04-20T17:51:54.864Z,23.40
2019-04-20T17:54:22.383Z,23.30
2019-04-20T17:56:54.447Z,23.20
2019-04-20T17:59:28.406Z,22.90
2019-04-20T18:02:20.381Z,22.60
2019-04-20T18:05:27.023Z,22.20
2019-04-20T18:07:58.281Z,21.90
2019-04-20T18:10:33.001Z,21.50
2019-04-20T18:12:50.208Z,21.40
2019-04-20T18:15:35.930Z,21.10
2019-04-20T18:18:28.757Z,20.80
2019-04-20T18:20:56.937Z,20.60
2019-04-20T18:23:44.782Z,20.40
2019-04-20T18:26:38.124Z,20.20
2019-04-20T18:29:10.324Z,20.00
2019-04-20T18:31:37.655Z,19.90
2019-04-20T18:34:17.986Z,19.70
2019-04-20T18:36:48.248Z,19.60
2019-04-20T18:39:29.163Z,19.40
2019-04-20T18:42:06.499Z,19.20
2019-04-20T18:44:46.225Z,19.00
2019-04-20T18:47:23.703Z,18.80
2019-04-20T18:49:49.135Z,18.60
2019-04-20T18:52:15.726Z,18.50
2019-04-20T18:54:51.499Z,18.40
2019-04-20T18:57:26.044Z,18.20
2019-04-20T18:59:57.212Z,18.00
2019-04-20T19:02:33.484Z,17.80
2019-04-20T19:05:04.798Z,17.80
2019-04-20T19:07:41.391Z,17.70
2019-04-20T19:10:20.282Z,17.70
2019-04-20T19:12:58.896Z,17.80
2019-04-20T19:16:12.026Z,18.00
2019-04-20T19:19:03.915Z,18.10
2019-04-20T19:21:24.984Z,18.20
2019-04-20T19:24:05.611Z,18.20
2019-04-20T19:26:32.242Z,18.10
2019-04-20T19:29:15.911Z,18.10
2019-04-20T19:31:56.914Z,17.90
2019-04-20T19:34:31.503Z,17.80
2019-04-20T19:37:01.108Z,17.70
2019-04-20T19:39:37.847Z,17.60
2019-04-20T19:42:12.204Z,17.70
2019-04-20T19:44:45.925Z,17.70
2019-04-20T19:47:28.409Z,17.60
2019-04-20T19:49:49.782Z,17.50
2019-04-20T19:52:38.709Z,17.40
2019-04-20T19:55:06.742Z,17.30
2019-04-20T19:57:37.245Z,17.10
2019-04-20T19:59:56.688Z,16.90
2019-04-20T20:02:29.746Z,16.70
2019-04-20T20:05:08.579Z,16.70
2019-04-20T20:07:41.567Z,16.80
2019-04-20T20:10:12.873Z,16.90
2019-04-20T20:12:51.734Z,17.00
2019-04-20T20:15:26.094Z,17.00
2019-04-20T20:18:14.044Z,17.00
2019-04-20T20:20:46.953Z,16.90
2019-04-20T20:23:02.464Z,16.80
2019-04-20T20:25:39.186Z,16.70
2019-04-20T20:28:19.132Z,16.50
2019-04-20T20:30:55.094Z,16.40
2019-04-20T20:33:36.511Z,16.20
2019-04-20T20:35:58.231Z,16.00
2019-04-20T20:38:33.183Z,15.80
2019-04-20T20:41:08.963Z,15.50
2019-04-20T20:43:45.719Z,15.40
2019-04-20T20:46:16.276Z,15.20
2019-04-20T20:49:03.451Z,15.10
2019-04-20T20:51:39.418Z,14.90
2019-04-20T20:53:59.028Z,14.80
2019-04-20T20:56:27.721Z,14.70
2019-04-20T20:59:04.180Z,14.60
2019-04-20T21:01:40.466Z,14.60
2019-04-20T21:04:02.704Z,14.50
2019-04-20T21:06:36.884Z,14.40
2019-04-20T21:09:10.398Z,14.40
2019-04-20T21:11:44.623Z,14.40
2019-04-20T21:14:21.950Z,14.50
2019-04-20T21:17:00.315Z,14.50
2019-04-20T21:19:44.896Z,14.60
2019-04-20T21:22:04.810Z,14.70
2019-04-20T21:24:35.889Z,14.70
2019-04-20T21:27:12.622Z,14.70
2019-04-20T21:29:44.441Z,14.60
2019-04-20T21:32:18.023Z,14.60
2019-04-20T21:34:55.680Z,14.50
2019-04-20T21:37:25.588Z,14.50
2019-04-20T21:40:01.448Z,14.40
2019-04-20T21:42:39.525Z,14.40
2019-04-20T21:45:10.337Z,14.40
2019-04-20T21:47:44.676Z,14.40
2019-04-20T21:50:29.985Z,14.40
2019-04-20T21:52:53.470Z,14.40
2019-04-20T21:55:23.846Z,14.40
2019-04-20T21:58:00.479Z,14.40
2019-04-20T22:00:56.058Z,14.40
2019-04-20T22:03:22.839Z,14.40
2019-04-20T22:06:04.503Z,14.30
2019-04-20T22:08:40.438Z,14.10
2019-04-20T22:11:11.980Z,14.10
2019-04-20T22:13:46.429Z,14.10
2019-04-20T22:16:20.058Z,14.10
2019-04-20T22:19:04.880Z,14.20
2019-04-20T22:21:35.469Z,14.20
2019-04-20T22:24:11.663Z,14.10
2019-04-20T22:26:41.570Z,14.10
2019-04-20T22:29:07.890Z,14.00
2019-04-20T22:31:40.336Z,13.90
2019-04-20T22:34:18.700Z,13.80
2019-04-20T22:36:48.726Z,13.60
2019-04-20T22:39:33.378Z,13.60
2019-04-20T22:42:07.389Z,13.40
2019-04-20T22:44:36.341Z,13.30
2019-04-20T22:47:14.118Z,13.20
2019-04-20T22:50:00.006Z,13.20
2019-04-20T22:52:29.369Z,13.10
2019-04-20T22:55:14.018Z,13.10
2019-04-20T22:57:39.062Z,13.00
2019-04-20T23:00:03.458Z,13.00
2019-04-20T23:02:33.200Z,13.00
2019-04-20T23:05:06.806Z,12.90
2019-04-20T23:07:38.985Z,12.90
2019-04-20T23:10:11.660Z,12.90
2019-04-20T23:12:48.035Z,12.80
2019-04-20T23:15:18.445Z,12.80
2019-04-20T23:17:52.166Z,12.80
2019-04-20T23:20:28.842Z,12.80
2019-04-20T23:22:58.545Z,12.90
2019-04-20T23:25:31.296Z,12.80
2019-04-20T23:28:09.865Z,12.80
2019-04-20T23:30:39.929Z,12.80
2019-04-20T23:33:11.792Z,12.70
2019-04-20T23:35:48.994Z,12.80
2019-04-20T23:38:21.090Z,12.70
2019-04-20T23:40:52.116Z,12.70
2019-04-20T23:43:33.362Z,12.70
2019-04-20T23:46:22.321Z,12.70
2019-04-20T23:49:18.843Z,12.80
2019-04-20T23:52:05.727Z,12.80
2019-04-20T23:54:22.031Z,12.80
2019-04-20T23:56:51.763Z,12.70
2019-04-20T23:59:28.955Z,12.60
